sensor_id;sensor_type;location;lat;lon;timestamp;temperature;humidity
10964;DHT22;5534;48.784;9.190;2024-01-16T00:00:07;3.00;99.90
10964;DHT22;5534;48.784;9.190;2024-01-16T00:02:34;3.00;99.90
10964;DHT22;5534;48.784;9.190;2024-01-16T00:05:00;3.00;99.90
10964;DHT22;5534;48.784;9.190;2024-01-16T00:07:26;2.90;99.90
10964;DHT22;5534;48.784;9.190;2024-01-16T00:09:51;2.70;99.90
10964;DHT22;5534;48.784;9.190;2024-01-16T00:12:19;2.80;99.90
10964;DHT22;5534;48.784;9.190;2024-01-16T00:14:45;2.80;99.90
10964;DHT22;5534;48.784;9.190;2024-01-16T00:17:11;2.80;99.90
10964;DHT22;5534;48.784;9.190;2024-01-16T00:19:37;2.90;99.90
10964;DHT22;5534;48.784;9.190;2024-01-16T00:22:02;3.00;99.90
10964;DHT22;5534;48.784;9.190;2024-01-16T00:24:30;2.90;99.90
10964;DHT22;5534;48.784;9.190;2024-01-16T00:26:56;2.90;99.90
10964;DHT22;5534;48.784;9.190;2024-01-16T00:29:22;2.90;99.90
10964;DHT22;5534;48.784;9.190;2024-01-16T00:31:49;2.90;99.90
10964;DHT22;5534;48.784;9.190;2024-01-16T00:34:15;2.90;99.90
10964;DHT22;5534;48.784;9.190;2024-01-16T00:36:40;2.80;99.90
10964;DHT22;5534;48.784;9.190;2024-01-16T00:39:06;2.70;99.90
10964;DHT22;5534;48.784;9.190;2024-01-16T00:41:32;2.80;99.90
10964;DHT22;5534;48.784;9.190;2024-01-16T00:43:58;2.80;99.90
10964;DHT22;5534;48.784;9.190;2024-01-16T00:46:24;2.80;99.90
10964;DHT22;5534;48.784;9.190;2024-01-16T00:48:50;2.80;99.90
10964;DHT22;5534;48.784;9.190;2024-01-16T00:51:15;2.80;99.90
10964;DHT22;5534;48.784;9.190;2024-01-16T00:53:42;2.90;99.90
10964;DHT22;5534;48.784;9.190;2024-01-16T00:56:08;2.80;99.90
10964;DHT22;5534;48.784;9.190;2024-01-16T00:58:35;2.70;99.90
10964;DHT22;5534;48.784;9.190;2024-01-16T01:01:00;2.60;99.90
10964;DHT22;5534;48.784;9.190;2024-01-16T01:03:26;2.80;99.90
10964;DHT22;5534;48.784;9.190;2024-01-16T01:05:52;2.80;99.90
10964;DHT22;5534;48.784;9.190;2024-01-16T01:08:18;2.60;99.90
10964;DHT22;5534;48.784;9.190;2024-01-16T01:10:44;2.90;99.90
10964;DHT22;5534;48.784;9.190;2024-01-16T01:13:10;3.00;99.90
10964;DHT22;5534;48.784;9.190;2024-01-16T01:15:35;2.80;99.90
10964;DHT22;5534;48.784;9.190;2024-01-16T01:18:01;2.80;99.90
10964;DHT22;5534;48.784;9.190;2024-01-16T01:20:27;2.80;99.90
10964;DHT22;5534;48.784;9.190;2024-01-16T01:22:53;2.80;99.90
10964;DHT22;5534;48.784;9.190;2024-01-16T01:25:18;2.90;99.90
10964;DHT22;5534;48.784;9.190;2024-01-16T01:27:44;2.80;99.90
10964;DHT22;5534;48.784;9.190;2024-01-16T01:30:10;2.70;99.90
10964;DHT22;5534;48.784;9.190;2024-01-16T01:32:37;2.80;99.90
10964;DHT22;5534;48.784;9.190;2024-01-16T01:35:03;2.80;99.90
10964;DHT22;5534;48.784;9.190;2024-01-16T01:37:29;2.90;99.90
10964;DHT22;5534;48.784;9.190;2024-01-16T01:39:55;2.60;99.90
10964;DHT22;5534;48.784;9.190;2024-01-16T01:42:21;2.70;99.90
10964;DHT22;5534;48.784;9.190;2024-01-16T01:44:47;2.90;99.90
10964;DHT22;5534;48.784;9.190;2024-01-16T01:47:13;2.90;99.90
10964;DHT22;5534;48.784;9.190;2024-01-16T01:49:39;2.90;99.90
10964;DHT22;5534;48.784;9.190;2024-01-16T01:52:06;2.90;99.90
10964;DHT22;5534;48.784;9.190;2024-01-16T01:54:35;2.80;99.90
10964;DHT22;5534;48.784;9.190;2024-01-16T01:57:02;2.90;99.90
10964;DHT22;5534;48.784;9.190;2024-01-16T01:59:29;2.90;99.90
10964;DHT22;5534;48.784;9.190;2024-01-16T02:01:56;2.90;99.90
10964;DHT22;5534;48.784;9.190;2024-01-16T02:04:22;2.80;99.90
10964;DHT22;5534;48.784;9.190;2024-01-16T02:06:50;2.90;99.90
10964;DHT22;5534;48.784;9.190;2024-01-16T02:09:15;2.90;99.90
10964;DHT22;5534;48.784;9.190;2024-01-16T02:11:42;3.00;99.90
10964;DHT22;5534;48.784;9.190;2024-01-16T02:14:08;2.90;99.90
10964;DHT22;5534;48.784;9.190;2024-01-16T02:16:39;3.00;99.90
10964;DHT22;5534;48.784;9.190;2024-01-16T02:19:05;2.80;99.90
10964;DHT22;5534;48.784;9.190;2024-01-16T02:21:42;2.80;99.90
10964;DHT22;5534;48.784;9.190;2024-01-16T02:24:10;2.80;99.90
10964;DHT22;5534;48.784;9.190;2024-01-16T02:26:37;2.70;99.90
10964;DHT22;5534;48.784;9.190;2024-01-16T02:29:03;2.70;99.90
10964;DHT22;5534;48.784;9.190;2024-01-16T02:31:32;2.70;99.90
10964;DHT22;5534;48.784;9.190;2024-01-16T02:33:59;2.80;99.90
10964;DHT22;5534;48.784;9.190;2024-01-16T02:36:25;2.80;99.90
10964;DHT22;5534;48.784;9.190;2024-01-16T02:38:51;2.80;99.90
10964;DHT22;5534;48.784;9.190;2024-01-16T02:41:17;2.70;99.90
10964;DHT22;5534;48.784;9.190;2024-01-16T02:43:44;2.70;99.90
10964;DHT22;5534;48.784;9.190;2024-01-16T02:46:10;2.70;99.90
10964;DHT22;5534;48.784;9.190;2024-01-16T02:48:36;2.70;99.90
10964;DHT22;5534;48.784;9.190;2024-01-16T02:51:02;2.70;99.90
10964;DHT22;5534;48.784;9.190;2024-01-16T02:53:29;2.70;99.90
10964;DHT22;5534;48.784;9.190;2024-01-16T02:55:55;2.80;99.90
10964;DHT22;5534;48.784;9.190;2024-01-16T02:58:24;2.70;99.90
10964;DHT22;5534;48.784;9.190;2024-01-16T03:00:53;2.70;99.90
10964;DHT22;5534;48.784;9.190;2024-01-16T03:03:19;2.70;99.90
10964;DHT22;5534;48.784;9.190;2024-01-16T03:05:45;2.70;99.90
10964;DHT22;5534;48.784;9.190;2024-01-16T03:08:10;2.60;99.90
10964;DHT22;5534;48.784;9.190;2024-01-16T03:10:36;2.70;99.90
10964;DHT22;5534;48.784;9.190;2024-01-16T03:13:02;2.70;99.90
10964;DHT22;5534;48.784;9.190;2024-01-16T03:15:28;2.70;99.90
10964;DHT22;5534;48.784;9.190;2024-01-16T03:17:57;2.60;99.90
10964;DHT22;5534;48.784;9.190;2024-01-16T03:20:23;2.50;99.90
10964;DHT22;5534;48.784;9.190;2024-01-16T03:22:49;2.50;99.90
10964;DHT22;5534;48.784;9.190;2024-01-16T03:25:16;2.50;99.90
10964;DHT22;5534;48.784;9.190;2024-01-16T03:27:42;2.60;99.90
10964;DHT22;5534;48.784;9.190;2024-01-16T03:30:08;2.50;99.90
10964;DHT22;5534;48.784;9.190;2024-01-16T03:32:35;2.50;99.90
10964;DHT22;5534;48.784;9.190;2024-01-16T03:35:01;2.40;99.90
10964;DHT22;5534;48.784;9.190;2024-01-16T03:37:27;2.30;99.90
10964;DHT22;5534;48.784;9.190;2024-01-16T03:39:53;2.30;99.90
10964;DHT22;5534;48.784;9.190;2024-01-16T03:42:20;2.20;99.90
10964;DHT22;5534;48.784;9.190;2024-01-16T03:44:46;2.40;99.90
10964;DHT22;5534;48.784;9.190;2024-01-16T03:47:12;2.40;99.90
10964;DHT22;5534;48.784;9.190;2024-01-16T03:49:38;2.50;99.90
10964;DHT22;5534;48.784;9.190;2024-01-16T03:52:04;2.50;99.90
10964;DHT22;5534;48.784;9.190;2024-01-16T03:54:30;2.50;99.90
10964;DHT22;5534;48.784;9.190;2024-01-16T03:56:56;2.50;99.90
10964;DHT22;5534;48.784;9.190;2024-01-16T03:59:22;2.40;99.90
10964;DHT22;5534;48.784;9.190;2024-01-16T04:01:49;2.40;99.90
10964;DHT22;5534;48.784;9.190;2024-01-16T04:04:15;2.40;99.90
10964;DHT22;5534;48.784;9.190;2024-01-16T04:06:42;2.10;99.90
10964;DHT22;5534;48.784;9.190;2024-01-16T04:09:08;2.20;99.90
10964;DHT22;5534;48.784;9.190;2024-01-16T04:11:35;2.30;99.90
10964;DHT22;5534;48.784;9.190;2024-01-16T04:14:01;2.30;99.90
10964;DHT22;5534;48.784;9.190;2024-01-16T04:16:27;2.10;99.90
10964;DHT22;5534;48.784;9.190;2024-01-16T04:18:53;2.00;99.90
10964;DHT22;5534;48.784;9.190;2024-01-16T04:21:19;2.20;99.90
10964;DHT22;5534;48.784;9.190;2024-01-16T04:23:45;2.30;99.90
10964;DHT22;5534;48.784;9.190;2024-01-16T04:26:10;2.20;99.90
10964;DHT22;5534;48.784;9.190;2024-01-16T04:28:36;2.30;99.90
10964;DHT22;5534;48.784;9.190;2024-01-16T04:31:03;2.30;99.90
10964;DHT22;5534;48.784;9.190;2024-01-16T04:33:29;2.30;99.90
10964;DHT22;5534;48.784;9.190;2024-01-16T04:35:55;2.30;99.90
10964;DHT22;5534;48.784;9.190;2024-01-16T04:38:21;2.30;99.90
10964;DHT22;5534;48.784;9.190;2024-01-16T04:40:47;2.30;99.90
10964;DHT22;5534;48.784;9.190;2024-01-16T04:43:13;2.30;99.90
10964;DHT22;5534;48.784;9.190;2024-01-16T04:45:38;2.30;99.90
10964;DHT22;5534;48.784;9.190;2024-01-16T04:48:04;2.30;99.90
10964;DHT22;5534;48.784;9.190;2024-01-16T04:50:30;2.30;99.90
10964;DHT22;5534;48.784;9.190;2024-01-16T04:52:59;2.30;99.90
10964;DHT22;5534;48.784;9.190;2024-01-16T04:55:31;2.10;99.90
10964;DHT22;5534;48.784;9.190;2024-01-16T04:57:57;2.20;99.90
10964;DHT22;5534;48.784;9.190;2024-01-16T05:00:23;2.20;99.90
10964;DHT22;5534;48.784;9.190;2024-01-16T05:02:49;2.10;99.90
10964;DHT22;5534;48.784;9.190;2024-01-16T05:05:16;2.10;99.90
10964;DHT22;5534;48.784;9.190;2024-01-16T05:07:43;2.10;99.90
10964;DHT22;5534;48.784;9.190;2024-01-16T05:10:12;2.10;99.90
10964;DHT22;5534;48.784;9.190;2024-01-16T05:12:41;2.10;99.90
10964;DHT22;5534;48.784;9.190;2024-01-16T05:15:07;2.10;99.90
10964;DHT22;5534;48.784;9.190;2024-01-16T05:17:34;2.10;99.90
10964;DHT22;5534;48.784;9.190;2024-01-16T05:20:01;2.00;99.90
10964;DHT22;5534;48.784;9.190;2024-01-16T05:22:29;2.10;99.90
10964;DHT22;5534;48.784;9.190;2024-01-16T05:24:55;2.10;99.90
10964;DHT22;5534;48.784;9.190;2024-01-16T05:27:20;2.10;99.90
10964;DHT22;5534;48.784;9.190;2024-01-16T05:29:46;2.00;99.90
10964;DHT22;5534;48.784;9.190;2024-01-16T05:32:13;1.90;99.90
10964;DHT22;5534;48.784;9.190;2024-01-16T05:34:39;2.00;99.90
10964;DHT22;5534;48.784;9.190;2024-01-16T05:37:05;1.90;99.90
10964;DHT22;5534;48.784;9.190;2024-01-16T05:39:30;1.90;99.90
10964;DHT22;5534;48.784;9.190;2024-01-16T05:41:56;2.00;99.90
10964;DHT22;5534;48.784;9.190;2024-01-16T05:44:22;1.90;99.90
10964;DHT22;5534;48.784;9.190;2024-01-16T05:46:49;2.00;99.90
10964;DHT22;5534;48.784;9.190;2024-01-16T05:49:16;2.00;99.90
10964;DHT22;5534;48.784;9.190;2024-01-16T05:51:42;2.00;99.90
10964;DHT22;5534;48.784;9.190;2024-01-16T05:54:07;2.00;99.90
10964;DHT22;5534;48.784;9.190;2024-01-16T05:56:33;2.00;99.90
10964;DHT22;5534;48.784;9.190;2024-01-16T05:58:59;2.00;99.90
10964;DHT22;5534;48.784;9.190;2024-01-16T06:01:25;2.00;99.90
10964;DHT22;5534;48.784;9.190;2024-01-16T06:03:52;2.00;99.90
10964;DHT22;5534;48.784;9.190;2024-01-16T06:06:18;2.00;99.90
10964;DHT22;5534;48.784;9.190;2024-01-16T06:08:45;1.90;99.90
10964;DHT22;5534;48.784;9.190;2024-01-16T06:11:10;1.90;99.90
10964;DHT22;5534;48.784;9.190;2024-01-16T06:13:36;2.00;99.90
10964;DHT22;5534;48.784;9.190;2024-01-16T06:16:02;2.00;99.90
10964;DHT22;5534;48.784;9.190;2024-01-16T06:18:28;1.90;99.90
10964;DHT22;5534;48.784;9.190;2024-01-16T06:20:54;1.90;99.90
10964;DHT22;5534;48.784;9.190;2024-01-16T06:23:20;1.80;99.90
10964;DHT22;5534;48.784;9.190;2024-01-16T06:25:45;1.90;99.90
10964;DHT22;5534;48.784;9.190;2024-01-16T06:28:11;1.80;99.90
10964;DHT22;5534;48.784;9.190;2024-01-16T06:30:37;1.60;99.90
10964;DHT22;5534;48.784;9.190;2024-01-16T06:33:03;1.50;99.90
10964;DHT22;5534;48.784;9.190;2024-01-16T06:35:29;1.60;99.90
10964;DHT22;5534;48.784;9.190;2024-01-16T06:37:54;1.70;99.90
10964;DHT22;5534;48.784;9.190;2024-01-16T06:40:20;1.70;99.90
10964;DHT22;5534;48.784;9.190;2024-01-16T06:42:46;1.80;99.90
10964;DHT22;5534;48.784;9.190;2024-01-16T06:45:12;1.70;99.90
10964;DHT22;5534;48.784;9.190;2024-01-16T06:47:42;1.70;99.90
10964;DHT22;5534;48.784;9.190;2024-01-16T06:50:08;1.40;99.90
10964;DHT22;5534;48.784;9.190;2024-01-16T06:52:34;1.50;99.90
10964;DHT22;5534;48.784;9.190;2024-01-16T06:55:01;1.80;99.90
10964;DHT22;5534;48.784;9.190;2024-01-16T06:57:27;1.90;99.90
10964;DHT22;5534;48.784;9.190;2024-01-16T06:59:53;1.90;99.90
10964;DHT22;5534;48.784;9.190;2024-01-16T07:02:19;1.90;99.90
10964;DHT22;5534;48.784;9.190;2024-01-16T07:04:44;1.90;99.90
10964;DHT22;5534;48.784;9.190;2024-01-16T07:07:10;1.90;99.90
10964;DHT22;5534;48.784;9.190;2024-01-16T07:09:36;1.90;99.90
10964;DHT22;5534;48.784;9.190;2024-01-16T07:12:02;1.80;99.90
10964;DHT22;5534;48.784;9.190;2024-01-16T07:14:29;1.80;99.90
10964;DHT22;5534;48.784;9.190;2024-01-16T07:16:55;1.90;99.90
10964;DHT22;5534;48.784;9.190;2024-01-16T07:19:20;1.90;99.90
10964;DHT22;5534;48.784;9.190;2024-01-16T07:21:46;2.00;99.90
10964;DHT22;5534;48.784;9.190;2024-01-16T07:24:12;1.90;99.90
10964;DHT22;5534;48.784;9.190;2024-01-16T07:26:39;1.70;99.90
10964;DHT22;5534;48.784;9.190;2024-01-16T07:29:10;1.80;99.90
10964;DHT22;5534;48.784;9.190;2024-01-16T07:31:35;1.90;99.90
10964;DHT22;5534;48.784;9.190;2024-01-16T07:34:01;1.80;99.90
10964;DHT22;5534;48.784;9.190;2024-01-16T07:36:27;1.80;99.90
10964;DHT22;5534;48.784;9.190;2024-01-16T07:38:53;1.90;99.90
10964;DHT22;5534;48.784;9.190;2024-01-16T07:41:18;1.90;99.90
10964;DHT22;5534;48.784;9.190;2024-01-16T07:43:44;1.80;99.90
10964;DHT22;5534;48.784;9.190;2024-01-16T07:46:10;1.80;99.90
10964;DHT22;5534;48.784;9.190;2024-01-16T07:48:36;1.90;99.90
10964;DHT22;5534;48.784;9.190;2024-01-16T07:51:03;1.80;99.90
10964;DHT22;5534;48.784;9.190;2024-01-16T07:53:28;1.90;99.90
10964;DHT22;5534;48.784;9.190;2024-01-16T07:55:54;1.70;99.90
10964;DHT22;5534;48.784;9.190;2024-01-16T07:58:20;1.70;99.90
10964;DHT22;5534;48.784;9.190;2024-01-16T08:00:46;1.90;99.90
10964;DHT22;5534;48.784;9.190;2024-01-16T08:03:12;2.00;99.90
10964;DHT22;5534;48.784;9.190;2024-01-16T08:05:40;2.00;99.90
10964;DHT22;5534;48.784;9.190;2024-01-16T08:08:08;2.10;99.90
10964;DHT22;5534;48.784;9.190;2024-01-16T08:10:35;2.10;99.90
10964;DHT22;5534;48.784;9.190;2024-01-16T08:13:01;2.00;99.90
10964;DHT22;5534;48.784;9.190;2024-01-16T08:15:26;2.00;99.90
10964;DHT22;5534;48.784;9.190;2024-01-16T08:17:52;2.10;99.90
10964;DHT22;5534;48.784;9.190;2024-01-16T08:20:18;2.00;99.90
10964;DHT22;5534;48.784;9.190;2024-01-16T08:22:44;2.10;99.90
10964;DHT22;5534;48.784;9.190;2024-01-16T08:25:09;2.10;99.90
10964;DHT22;5534;48.784;9.190;2024-01-16T08:27:38;2.20;99.90
10964;DHT22;5534;48.784;9.190;2024-01-16T08:30:05;2.30;99.90
10964;DHT22;5534;48.784;9.190;2024-01-16T08:32:32;2.20;99.90
10964;DHT22;5534;48.784;9.190;2024-01-16T08:34:58;2.30;99.90
10964;DHT22;5534;48.784;9.190;2024-01-16T08:37:24;2.30;99.90
10964;DHT22;5534;48.784;9.190;2024-01-16T08:39:51;2.30;99.90
10964;DHT22;5534;48.784;9.190;2024-01-16T08:42:17;2.40;99.90
10964;DHT22;5534;48.784;9.190;2024-01-16T08:44:43;2.40;99.90
10964;DHT22;5534;48.784;9.190;2024-01-16T08:47:09;2.40;99.90
10964;DHT22;5534;48.784;9.190;2024-01-16T08:49:35;2.50;99.90
10964;DHT22;5534;48.784;9.190;2024-01-16T08:52:01;2.50;99.90
10964;DHT22;5534;48.784;9.190;2024-01-16T08:54:28;2.60;99.90
10964;DHT22;5534;48.784;9.190;2024-01-16T08:56:53;2.60;99.90
10964;DHT22;5534;48.784;9.190;2024-01-16T08:59:19;2.60;99.90
10964;DHT22;5534;48.784;9.190;2024-01-16T09:01:45;2.50;99.90
10964;DHT22;5534;48.784;9.190;2024-01-16T09:04:11;2.60;99.90
10964;DHT22;5534;48.784;9.190;2024-01-16T09:06:37;2.50;99.90
10964;DHT22;5534;48.784;9.190;2024-01-16T09:09:03;2.50;99.90
10964;DHT22;5534;48.784;9.190;2024-01-16T09:11:31;2.50;99.90
10964;DHT22;5534;48.784;9.190;2024-01-16T09:13:58;2.60;99.90
10964;DHT22;5534;48.784;9.190;2024-01-16T09:16:24;2.70;99.90
10964;DHT22;5534;48.784;9.190;2024-01-16T09:18:50;2.80;99.90
10964;DHT22;5534;48.784;9.190;2024-01-16T09:21:16;2.80;99.90
10964;DHT22;5534;48.784;9.190;2024-01-16T09:23:42;2.80;99.90
10964;DHT22;5534;48.784;9.190;2024-01-16T09:26:07;2.80;99.90
10964;DHT22;5534;48.784;9.190;2024-01-16T09:28:33;2.80;99.90
10964;DHT22;5534;48.784;9.190;2024-01-16T09:30:59;2.80;99.90
10964;DHT22;5534;48.784;9.190;2024-01-16T09:33:25;2.90;99.90
10964;DHT22;5534;48.784;9.190;2024-01-16T09:35:51;2.90;99.90
10964;DHT22;5534;48.784;9.190;2024-01-16T09:38:17;2.90;99.90
10964;DHT22;5534;48.784;9.190;2024-01-16T09:40:43;2.90;99.90
10964;DHT22;5534;48.784;9.190;2024-01-16T09:43:09;3.00;99.90
10964;DHT22;5534;48.784;9.190;2024-01-16T09:45:39;3.10;99.90
10964;DHT22;5534;48.784;9.190;2024-01-16T09:48:06;3.00;99.90
10964;DHT22;5534;48.784;9.190;2024-01-16T09:50:33;3.00;99.90
10964;DHT22;5534;48.784;9.190;2024-01-16T09:52:59;3.10;99.90
10964;DHT22;5534;48.784;9.190;2024-01-16T09:55:25;3.10;99.90
10964;DHT22;5534;48.784;9.190;2024-01-16T09:57:52;3.20;99.90
10964;DHT22;5534;48.784;9.190;2024-01-16T10:00:21;3.20;99.90
10964;DHT22;5534;48.784;9.190;2024-01-16T10:02:47;3.20;99.90
10964;DHT22;5534;48.784;9.190;2024-01-16T10:05:13;3.30;99.90
10964;DHT22;5534;48.784;9.190;2024-01-16T10:07:41;3.40;99.90
10964;DHT22;5534;48.784;9.190;2024-01-16T10:10:09;3.60;99.90
10964;DHT22;5534;48.784;9.190;2024-01-16T10:12:39;3.60;99.90
10964;DHT22;5534;48.784;9.190;2024-01-16T10:15:06;3.50;99.90
10964;DHT22;5534;48.784;9.190;2024-01-16T10:17:39;3.60;99.90
10964;DHT22;5534;48.784;9.190;2024-01-16T10:20:06;3.60;99.90
10964;DHT22;5534;48.784;9.190;2024-01-16T10:22:33;3.70;99.90
10964;DHT22;5534;48.784;9.190;2024-01-16T10:25:12;3.80;99.90
10964;DHT22;5534;48.784;9.190;2024-01-16T10:27:42;3.90;99.90
10964;DHT22;5534;48.784;9.190;2024-01-16T10:30:09;3.90;99.90
10964;DHT22;5534;48.784;9.190;2024-01-16T10:32:43;4.00;99.90
10964;DHT22;5534;48.784;9.190;2024-01-16T10:35:10;4.00;99.90
10964;DHT22;5534;48.784;9.190;2024-01-16T10:37:46;4.20;99.90
10964;DHT22;5534;48.784;9.190;2024-01-16T10:40:22;4.20;99.90
10964;DHT22;5534;48.784;9.190;2024-01-16T10:43:03;4.10;99.90
10964;DHT22;5534;48.784;9.190;2024-01-16T10:45:30;4.20;99.90
10964;DHT22;5534;48.784;9.190;2024-01-16T10:48:03;4.30;99.90
10964;DHT22;5534;48.784;9.190;2024-01-16T10:50:30;4.40;99.90
10964;DHT22;5534;48.784;9.190;2024-01-16T10:52:59;4.60;99.90
10964;DHT22;5534;48.784;9.190;2024-01-16T10:55:28;4.70;99.90
10964;DHT22;5534;48.784;9.190;2024-01-16T10:57:56;4.80;99.90
10964;DHT22;5534;48.784;9.190;2024-01-16T11:00:23;4.70;99.90
10964;DHT22;5534;48.784;9.190;2024-01-16T11:03:06;4.50;99.90
10964;DHT22;5534;48.784;9.190;2024-01-16T11:05:34;4.00;99.90
10964;DHT22;5534;48.784;9.190;2024-01-16T11:08:01;4.00;99.90
10964;DHT22;5534;48.784;9.190;2024-01-16T11:10:28;4.30;99.90
10964;DHT22;5534;48.784;9.190;2024-01-16T11:12:55;4.50;99.90
10964;DHT22;5534;48.784;9.190;2024-01-16T11:15:21;4.60;99.90
10964;DHT22;5534;48.784;9.190;2024-01-16T11:17:47;4.80;99.90
10964;DHT22;5534;48.784;9.190;2024-01-16T11:20:15;4.20;99.90
10964;DHT22;5534;48.784;9.190;2024-01-16T11:22:44;4.10;99.90
10964;DHT22;5534;48.784;9.190;2024-01-16T11:25:12;4.30;99.90
10964;DHT22;5534;48.784;9.190;2024-01-16T11:27:42;4.40;99.90
10964;DHT22;5534;48.784;9.190;2024-01-16T11:30:10;4.80;99.90
10964;DHT22;5534;48.784;9.190;2024-01-16T11:32:40;4.90;99.90
10964;DHT22;5534;48.784;9.190;2024-01-16T11:35:07;5.00;99.90
10964;DHT22;5534;48.784;9.190;2024-01-16T11:37:35;4.90;99.90
10964;DHT22;5534;48.784;9.190;2024-01-16T11:42:54;4.90;99.90
10964;DHT22;5534;48.784;9.190;2024-01-16T11:50:38;4.70;99.90
10964;DHT22;5534;48.784;9.190;2024-01-16T11:53:03;5.00;99.90
10964;DHT22;5534;48.784;9.190;2024-01-16T11:55:34;4.80;99.90
10964;DHT22;5534;48.784;9.190;2024-01-16T12:01:07;4.60;99.90
10964;DHT22;5534;48.784;9.190;2024-01-16T12:03:34;4.90;99.90
10964;DHT22;5534;48.784;9.190;2024-01-16T12:06:00;5.20;99.90
10964;DHT22;5534;48.784;9.190;2024-01-16T12:08:27;5.50;99.90
10964;DHT22;5534;48.784;9.190;2024-01-16T12:10:54;5.40;99.90
10964;DHT22;5534;48.784;9.190;2024-01-16T12:13:20;5.60;99.90
10964;DHT22;5534;48.784;9.190;2024-01-16T12:15:45;5.70;99.90
10964;DHT22;5534;48.784;9.190;2024-01-16T12:18:20;5.80;99.90
10964;DHT22;5534;48.784;9.190;2024-01-16T12:20:46;5.90;99.90
10964;DHT22;5534;48.784;9.190;2024-01-16T12:23:11;5.90;99.90
10964;DHT22;5534;48.784;9.190;2024-01-16T12:25:39;6.00;99.90
10964;DHT22;5534;48.784;9.190;2024-01-16T12:28:06;6.00;99.90
10964;DHT22;5534;48.784;9.190;2024-01-16T12:30:33;6.10;99.90
10964;DHT22;5534;48.784;9.190;2024-01-16T12:33:07;6.10;99.90
10964;DHT22;5534;48.784;9.190;2024-01-16T12:35:40;6.20;99.90
10964;DHT22;5534;48.784;9.190;2024-01-16T12:38:08;6.20;99.90
10964;DHT22;5534;48.784;9.190;2024-01-16T12:40:49;6.30;99.90
10964;DHT22;5534;48.784;9.190;2024-01-16T12:43:19;6.50;99.90
10964;DHT22;5534;48.784;9.190;2024-01-16T12:45:45;6.50;99.90
10964;DHT22;5534;48.784;9.190;2024-01-16T12:48:11;6.60;99.90
10964;DHT22;5534;48.784;9.190;2024-01-16T12:50:37;6.50;99.10
10964;DHT22;5534;48.784;9.190;2024-01-16T12:53:05;6.80;99.30
10964;DHT22;5534;48.784;9.190;2024-01-16T12:55:32;6.80;98.80
10964;DHT22;5534;48.784;9.190;2024-01-16T12:58:18;6.30;98.10
10964;DHT22;5534;48.784;9.190;2024-01-16T13:00:46;6.50;99.50
10964;DHT22;5534;48.784;9.190;2024-01-16T13:03:20;6.60;99.40
10964;DHT22;5534;48.784;9.190;2024-01-16T13:05:59;6.60;99.00
10964;DHT22;5534;48.784;9.190;2024-01-16T13:08:27;6.70;99.00
10964;DHT22;5534;48.784;9.190;2024-01-16T13:11:09;6.60;99.00
10964;DHT22;5534;48.784;9.190;2024-01-16T13:13:36;6.50;98.90
10964;DHT22;5534;48.784;9.190;2024-01-16T13:16:04;6.50;98.60
10964;DHT22;5534;48.784;9.190;2024-01-16T13:18:33;6.50;98.60
10964;DHT22;5534;48.784;9.190;2024-01-16T13:20:59;6.30;98.50
10964;DHT22;5534;48.784;9.190;2024-01-16T13:23:26;5.80;98.00
10964;DHT22;5534;48.784;9.190;2024-01-16T13:25:53;6.00;99.30
10964;DHT22;5534;48.784;9.190;2024-01-16T13:28:21;6.20;98.90
10964;DHT22;5534;48.784;9.190;2024-01-16T13:30:48;6.30;98.80
10964;DHT22;5534;48.784;9.190;2024-01-16T13:33:15;6.30;97.90
10964;DHT22;5534;48.784;9.190;2024-01-16T13:35:45;6.40;98.80
10964;DHT22;5534;48.784;9.190;2024-01-16T13:38:13;6.40;97.60
10964;DHT22;5534;48.784;9.190;2024-01-16T13:40:41;6.20;98.00
10964;DHT22;5534;48.784;9.190;2024-01-16T13:43:07;6.30;98.50
10964;DHT22;5534;48.784;9.190;2024-01-16T13:45:33;6.40;97.60
10964;DHT22;5534;48.784;9.190;2024-01-16T13:48:01;6.30;98.30
10964;DHT22;5534;48.784;9.190;2024-01-16T13:50:27;6.30;98.00
10964;DHT22;5534;48.784;9.190;2024-01-16T13:52:55;6.40;98.30
10964;DHT22;5534;48.784;9.190;2024-01-16T13:55:21;6.40;97.50
10964;DHT22;5534;48.784;9.190;2024-01-16T13:57:49;6.20;98.00
10964;DHT22;5534;48.784;9.190;2024-01-16T14:00:15;6.20;98.30
10964;DHT22;5534;48.784;9.190;2024-01-16T14:02:47;6.20;98.40
10964;DHT22;5534;48.784;9.190;2024-01-16T14:05:19;6.20;98.50
10964;DHT22;5534;48.784;9.190;2024-01-16T14:07:47;6.10;98.20
10964;DHT22;5534;48.784;9.190;2024-01-16T14:10:14;5.90;98.10
10964;DHT22;5534;48.784;9.190;2024-01-16T14:12:44;5.90;98.50
10964;DHT22;5534;48.784;9.190;2024-01-16T14:15:14;6.00;98.80
10964;DHT22;5534;48.784;9.190;2024-01-16T14:17:52;6.10;98.70
10964;DHT22;5534;48.784;9.190;2024-01-16T14:20:20;6.00;98.60
10964;DHT22;5534;48.784;9.190;2024-01-16T14:22:50;6.00;98.80
10964;DHT22;5534;48.784;9.190;2024-01-16T14:25:19;6.00;98.30
10964;DHT22;5534;48.784;9.190;2024-01-16T14:27:55;6.00;98.00
10964;DHT22;5534;48.784;9.190;2024-01-16T14:30:22;6.00;98.50
10964;DHT22;5534;48.784;9.190;2024-01-16T14:32:48;5.90;98.30
10964;DHT22;5534;48.784;9.190;2024-01-16T14:35:14;5.90;98.00
10964;DHT22;5534;48.784;9.190;2024-01-16T14:37:43;5.70;98.30
10964;DHT22;5534;48.784;9.190;2024-01-16T14:40:09;5.70;98.70
10964;DHT22;5534;48.784;9.190;2024-01-16T14:42:52;5.60;98.50
10964;DHT22;5534;48.784;9.190;2024-01-16T14:45:23;5.60;98.40
10964;DHT22;5534;48.784;9.190;2024-01-16T14:47:50;5.50;98.60
10964;DHT22;5534;48.784;9.190;2024-01-16T14:50:17;5.40;98.80
10964;DHT22;5534;48.784;9.190;2024-01-16T14:52:44;5.40;98.80
10964;DHT22;5534;48.784;9.190;2024-01-16T14:55:12;5.40;98.70
10964;DHT22;5534;48.784;9.190;2024-01-16T14:57:39;5.20;98.60
10964;DHT22;5534;48.784;9.190;2024-01-16T15:00:09;5.30;99.00
10964;DHT22;5534;48.784;9.190;2024-01-16T15:02:46;5.20;99.00
10964;DHT22;5534;48.784;9.190;2024-01-16T15:05:14;5.20;98.90
10964;DHT22;5534;48.784;9.190;2024-01-16T15:07:40;5.20;98.40
10964;DHT22;5534;48.784;9.190;2024-01-16T15:10:09;5.00;98.30
10964;DHT22;5534;48.784;9.190;2024-01-16T15:12:35;5.00;99.20
10964;DHT22;5534;48.784;9.190;2024-01-16T15:15:01;5.10;99.00
10964;DHT22;5534;48.784;9.190;2024-01-16T15:17:29;5.10;99.20
10964;DHT22;5534;48.784;9.190;2024-01-16T15:19:55;5.00;99.50
10964;DHT22;5534;48.784;9.190;2024-01-16T15:22:21;4.90;99.90
10964;DHT22;5534;48.784;9.190;2024-01-16T15:24:46;4.80;99.90
10964;DHT22;5534;48.784;9.190;2024-01-16T15:27:13;4.70;99.90
10964;DHT22;5534;48.784;9.190;2024-01-16T15:29:40;4.90;99.90
10964;DHT22;5534;48.784;9.190;2024-01-16T15:32:07;4.80;99.90
10964;DHT22;5534;48.784;9.190;2024-01-16T15:34:32;4.90;99.90
10964;DHT22;5534;48.784;9.190;2024-01-16T15:36:58;4.80;99.90
10964;DHT22;5534;48.784;9.190;2024-01-16T15:39:25;4.70;99.90
10964;DHT22;5534;48.784;9.190;2024-01-16T15:41:53;4.70;99.90
10964;DHT22;5534;48.784;9.190;2024-01-16T15:44:19;4.50;99.90
10964;DHT22;5534;48.784;9.190;2024-01-16T15:49:21;4.60;99.90
10964;DHT22;5534;48.784;9.190;2024-01-16T15:51:46;4.60;99.90
10964;DHT22;5534;48.784;9.190;2024-01-16T15:54:12;4.60;99.90
10964;DHT22;5534;48.784;9.190;2024-01-16T15:56:40;4.60;99.90
10964;DHT22;5534;48.784;9.190;2024-01-16T15:59:06;4.50;99.90
10964;DHT22;5534;48.784;9.190;2024-01-16T16:01:32;4.50;99.90
10964;DHT22;5534;48.784;9.190;2024-01-16T16:03:58;4.40;99.90
10964;DHT22;5534;48.784;9.190;2024-01-16T16:06:27;4.40;99.90
10964;DHT22;5534;48.784;9.190;2024-01-16T16:08:53;4.30;99.90
10964;DHT22;5534;48.784;9.190;2024-01-16T16:11:19;4.30;99.90
10964;DHT22;5534;48.784;9.190;2024-01-16T16:13:45;4.30;99.90